createdAt,value
2023-05-05T00:00:12.437Z,18.8
2023-05-05T00:10:12.166Z,18.6
2023-05-05T00:20:12.335Z,18.6
2023-05-05T00:30:13.066Z,19.1
2023-05-05T00:40:13.383Z,18.9
2023-05-05T00:50:13.980Z,18.6
2023-05-05T01:00:13.953Z,18.6
2023-05-05T01:10:20.015Z,18.6
2023-05-05T01:20:14.044Z,18.5
2023-05-05T01:30:13.469Z,18.6
2023-05-05T01:40:13.025Z,18.5
2023-05-05T01:50:12.420Z,18.5
2023-05-05T02:00:12.775Z,18.6
2023-05-05T02:10:12.673Z,18.4
2023-05-05T02:20:12.406Z,18.5
2023-05-05T02:30:12.261Z,18.5
2023-05-05T02:40:11.914Z,18.5
2023-05-05T02:50:11.602Z,18.4
2023-05-05T03:10:07.799Z,18.5
2023-05-05T03:20:07.403Z,18.6
2023-05-05T03:30:07.325Z,18.5
2023-05-05T03:40:08.448Z,18.5
2023-05-05T03:50:09.141Z,18.4
2023-05-05T04:00:09.011Z,18.4
2023-05-05T04:10:10.609Z,18.6
2023-05-05T04:20:12.020Z,18.5
2023-05-05T04:30:12.571Z,18.6
2023-05-05T04:40:13.995Z,18.6
2023-05-05T04:50:14.609Z,18.5
2023-05-05T05:00:14.230Z,18.6
2023-05-05T05:10:14.890Z,18.6
2023-05-05T05:20:15.322Z,18.6
2023-05-05T05:30:15.960Z,18.6
2023-05-05T05:40:17.051Z,18.6
2023-05-05T05:50:21.519Z,19.2
2023-05-05T06:00:24.422Z,18.6
2023-05-05T06:10:27.097Z,18.8
2023-05-05T06:20:26.944Z,18.6
2023-05-05T06:30:27.557Z,18.9
2023-05-05T06:40:28.377Z,19.1
2023-05-05T06:50:35.511Z,19.3
2023-05-05T07:00:43.354Z,19.3
2023-05-05T07:10:48.994Z,19.5
2023-05-05T07:20:54.587Z,19.6
2023-05-05T07:31:05.539Z,19
2023-05-05T07:41:18.886Z,17.2
2023-05-05T07:51:35.097Z,19.6
2023-05-05T08:01:54.805Z,21.4
2023-05-05T08:12:09.961Z,19.6
2023-05-05T08:22:28.896Z,19.4
2023-05-05T08:32:45.314Z,20.7
2023-05-05T08:43:00.073Z,20.6
2023-05-05T08:53:14.688Z,20.6
2023-05-05T09:10:19.576Z,21.4
2023-05-05T09:20:25.972Z,21.4
2023-05-05T09:30:38.435Z,20.8
2023-05-05T09:40:53.088Z,20.8
2023-05-05T09:51:07.329Z,20.9
2023-05-05T10:01:16.225Z,20.9
2023-05-05T10:11:32.351Z,21
2023-05-05T10:21:47.716Z,21.2
2023-05-05T10:32:16.453Z,21.1
2023-05-05T10:42:24.611Z,20.9
2023-05-05T10:52:39.683Z,21
2023-05-05T11:02:55.382Z,20.9
2023-05-05T11:13:06.507Z,20.8
2023-05-05T11:23:23.744Z,21
2023-05-05T11:33:40.310Z,21.1
2023-05-05T11:43:56.211Z,21.1
2023-05-05T11:54:11.209Z,22.2
2023-05-05T12:04:27.602Z,21.6
2023-05-05T12:14:46.484Z,21.4
2023-05-05T12:25:05.789Z,21.4
2023-05-05T12:35:20.901Z,21.3
2023-05-05T12:45:30.971Z,20.3
2023-05-05T12:55:48.029Z,20.8
2023-05-05T13:06:03.474Z,21.8
2023-05-05T13:16:17.876Z,21.1
2023-05-05T13:26:31.462Z,20.6
2023-05-05T13:36:40.151Z,21.3
2023-05-05T13:46:45.922Z,21
2023-05-05T13:56:59.637Z,20.8
2023-05-05T14:07:07.660Z,20.7
2023-05-05T14:17:17.121Z,21.3
2023-05-05T14:27:16.665Z,20.9
2023-05-05T14:37:18.908Z,20.8
2023-05-05T14:47:20.992Z,21
2023-05-05T14:57:20.779Z,21
2023-05-05T15:10:07.557Z,21.1
2023-05-05T15:20:09.808Z,20.8
2023-05-05T15:30:09.239Z,20.8
2023-05-05T15:40:08.972Z,20.7
2023-05-05T15:50:08.102Z,20.9
2023-05-05T16:00:08.691Z,20.7
2023-05-05T16:10:09.709Z,20.8
2023-05-05T16:20:13.020Z,20.9
2023-05-05T16:30:14.932Z,20.7
2023-05-05T16:40:18.333Z,21
2023-05-05T16:50:19.876Z,20.5
2023-05-05T17:00:19.916Z,20.4
2023-05-05T17:10:21.674Z,20.4
2023-05-05T17:20:23.084Z,20.6
2023-05-05T17:30:25.078Z,20.4
2023-05-05T17:40:26.489Z,20.4
2023-05-05T17:50:27.470Z,20.8
2023-05-05T18:00:27.925Z,20.4
2023-05-05T18:10:28.385Z,20.4
2023-05-05T18:20:28.348Z,20.1
2023-05-05T18:30:28.799Z,20.1
2023-05-05T18:40:29.645Z,20
2023-05-05T18:50:30.414Z,19.9
2023-05-05T19:00:31.885Z,19.9
2023-05-05T19:10:31.668Z,19.8
2023-05-05T19:20:31.432Z,19.8
2023-05-05T19:30:32.362Z,19.8
2023-05-05T19:40:32.510Z,19.7
2023-05-05T19:50:31.857Z,19.7
2023-05-05T20:00:32.729Z,19.6
2023-05-05T20:10:33.052Z,19.6
2023-05-05T20:20:33.467Z,19.4
2023-05-05T20:30:32.860Z,19.4
2023-05-05T20:40:32.367Z,19.5
2023-05-05T20:50:32.469Z,19.4
2023-05-05T21:10:08.977Z,19.3
2023-05-05T21:20:09.364Z,19.3
2023-05-05T21:30:11.111Z,19.3
2023-05-05T21:40:10.574Z,19.3
2023-05-05T21:50:10.949Z,19.3
2023-05-05T22:00:11.089Z,19.6
2023-05-05T22:10:10.528Z,19.2
2023-05-05T22:20:12.147Z,19.2
2023-05-05T22:30:12.485Z,19.1
2023-05-05T22:40:13.941Z,19.1
2023-05-05T22:50:15.437Z,19.1
2023-05-05T23:00:16.107Z,19.4
2023-05-05T23:10:16.649Z,19.1
2023-05-05T23:20:16.926Z,19.1
2023-05-05T23:30:16.901Z,18.9
2023-05-05T23:40:17.344Z,19.1
2023-05-05T23:50:17.870Z,19.1
